Time;durP1;ratioP1;P1;durP2;ratioP2;P2;SDS_P1;SDS_P2;PMS_P1;PMS_P2;Temp;Humidity;BMP_temperature;BMP_pressure;BME280_temperature;BME280_humidity;BME280_pressure;Samples;Min_cycle;Max_cycle;Signal;HPM_P1;HPM_P2
2023/01/09 00:00:21;;;;;;;;;;;19.00;40.80;;;;;;5062687;28;19932;-64
2023/01/09 00:02:47;;;;;;;;;;;19.00;40.80;;;;;;5064042;28;20337;-65
2023/01/09 00:05:16;;;;;;;;;;;19.00;40.80;;;;;;5060695;28;19928;-63
2023/01/09 00:07:43;;;;;;;;;;;19.00;40.80;;;;;;5060810;28;20037;-66
2023/01/09 00:10:10;;;;;;;;;;;19.00;40.80;;;;;;5061457;28;19986;-67
2023/01/09 00:12:37;;;;;;;;;;;19.00;40.80;;;;;;5062226;28;19920;-63
2023/01/09 00:15:04;;;;;;;;;;;19.00;40.80;;;;;;5079008;28;19920;-65
2023/01/09 00:17:31;;;;;;;;;;;18.90;40.80;;;;;;5063367;28;19978;-64
2023/01/09 00:19:58;;;;;;;;;;;18.90;40.80;;;;;;5061883;28;19951;-64
2023/01/09 00:22:26;;;;;;;;;;;18.90;41.40;;;;;;5079486;28;19942;-65
2023/01/09 00:24:53;;;;;;;;;;;18.90;40.80;;;;;;5061434;28;19951;-64
2023/01/09 00:27:19;;;;;;;;;;;18.90;40.80;;;;;;5062549;28;20392;-64
2023/01/09 00:29:48;;;;;;;;;;;18.90;40.80;;;;;;5077239;28;19936;-64
2023/01/09 00:32:15;;;;;;;;;;;18.90;40.80;;;;;;5059593;28;20370;-65
2023/01/09 00:34:42;;;;;;;;;;;18.90;40.80;;;;;;5060430;28;19925;-64
2023/01/09 00:37:10;;;;;;;;;;;18.90;40.80;;;;;;5061497;28;19920;-66
2023/01/09 00:39:38;;;;;;;;;;;18.90;40.80;;;;;;5061934;28;19973;-64
2023/01/09 00:42:05;;;;;;;;;;;18.90;40.80;;;;;;5058605;28;19977;-64
2023/01/09 00:44:33;;;;;;;;;;;18.90;40.80;;;;;;5059930;28;19920;-64
2023/01/09 00:47:00;;;;;;;;;;;18.90;40.80;;;;;;5063012;28;20350;-65
2023/01/09 00:49:28;;;;;;;;;;;18.90;40.80;;;;;;5061061;28;19989;-65
2023/01/09 00:51:55;;;;;;;;;;;18.90;40.80;;;;;;5063507;28;19928;-64
2023/01/09 00:54:21;;;;;;;;;;;18.90;40.80;;;;;;5079457;28;19932;-64
2023/01/09 00:56:49;;;;;;;;;;;18.80;40.70;;;;;;5078598;28;19952;-64
2023/01/09 00:59:16;;;;;;;;;;;18.80;40.70;;;;;;5080373;28;19931;-64
2023/01/09 01:01:43;;;;;;;;;;;18.80;40.70;;;;;;5061815;28;19928;-65
2023/01/09 01:09:38;;;;;;;;;;;18.80;40.70;;;;;;5061408;28;19920;-65
2023/01/09 01:12:06;;;;;;;;;;;18.80;40.70;;;;;;5062886;28;19928;-64
2023/01/09 01:14:33;;;;;;;;;;;18.80;40.70;;;;;;5061078;28;19970;-65
2023/01/09 01:17:00;;;;;;;;;;;18.80;40.60;;;;;;5063456;28;20362;-66
2023/01/09 01:19:27;;;;;;;;;;;18.80;40.70;;;;;;5083198;28;19959;-65
2023/01/09 01:21:54;;;;;;;;;;;18.80;40.70;;;;;;5066512;28;19920;-66
2023/01/09 01:24:20;;;;;;;;;;;18.80;40.60;;;;;;5064889;28;19927;-65
2023/01/09 01:26:47;;;;;;;;;;;18.80;40.60;;;;;;5062738;28;19977;-64
2023/01/09 01:29:15;;;;;;;;;;;18.80;40.60;;;;;;5063621;28;19973;-65
2023/01/09 01:31:42;;;;;;;;;;;18.80;40.60;;;;;;5081265;28;19925;-66
2023/01/09 01:34:09;;;;;;;;;;;18.80;40.70;;;;;;5066840;28;19920;-64
2023/01/09 01:36:36;;;;;;;;;;;18.80;40.60;;;;;;5064211;28;19935;-64
2023/01/09 01:39:03;;;;;;;;;;;18.80;40.60;;;;;;5067028;28;19931;-64
2023/01/09 01:41:29;;;;;;;;;;;18.80;40.70;;;;;;5080839;28;19989;-64
2023/01/09 01:43:57;;;;;;;;;;;18.80;40.70;;;;;;5065215;28;20289;-68
2023/01/09 01:46:25;;;;;;;;;;;18.70;40.60;;;;;;5063487;28;20007;-64
2023/01/09 01:48:52;;;;;;;;;;;18.70;40.60;;;;;;5065896;28;19935;-64
2023/01/09 01:51:19;;;;;;;;;;;18.70;40.60;;;;;;5062484;28;19966;-64
2023/01/09 01:53:48;;;;;;;;;;;18.70;40.60;;;;;;5064285;28;19924;-65
2023/01/09 01:56:17;;;;;;;;;;;18.70;40.60;;;;;;5060726;28;19920;-65
2023/01/09 01:58:44;;;;;;;;;;;18.70;40.60;;;;;;5064779;28;19981;-64
2023/01/09 02:01:11;;;;;;;;;;;18.70;40.60;;;;;;5079317;28;19920;-63
2023/01/09 02:03:39;;;;;;;;;;;18.70;40.60;;;;;;5066675;28;19942;-64
2023/01/09 02:06:06;;;;;;;;;;;18.70;40.60;;;;;;5063412;28;19927;-65
2023/01/09 02:08:34;;;;;;;;;;;18.70;40.60;;;;;;5084381;28;19981;-65
2023/01/09 02:11:02;;;;;;;;;;;18.70;40.60;;;;;;5063505;28;19924;-64
2023/01/09 02:13:29;;;;;;;;;;;18.70;40.60;;;;;;5083993;28;19920;-64
2023/01/09 02:16:00;;;;;;;;;;;18.70;40.60;;;;;;5079476;28;19993;-63
2023/01/09 02:18:29;;;;;;;;;;;18.70;40.60;;;;;;5064179;28;19920;-63
2023/01/09 02:20:58;;;;;;;;;;;18.70;40.70;;;;;;5060063;28;19920;-64
2023/01/09 02:23:38;;;;;;;;;;;18.70;40.70;;;;;;5064734;28;19982;-64
2023/01/09 02:26:13;;;;;;;;;;;18.70;40.70;;;;;;5062842;28;20033;-64
2023/01/09 02:28:44;;;;;;;;;;;18.70;40.70;;;;;;5061933;28;19921;-65
2023/01/09 02:31:13;;;;;;;;;;;18.70;40.70;;;;;;5080873;28;19927;-64
2023/01/09 02:33:42;;;;;;;;;;;18.70;41.30;;;;;;5064264;28;20100;-64
2023/01/09 02:36:14;;;;;;;;;;;18.70;40.80;;;;;;5062729;28;19920;-64
2023/01/09 02:38:43;;;;;;;;;;;18.70;40.70;;;;;;5080378;28;19931;-66
2023/01/09 02:41:11;;;;;;;;;;;18.70;40.70;;;;;;5066324;28;20198;-70
2023/01/09 02:43:38;;;;;;;;;;;18.70;40.80;;;;;;5064815;28;19920;-67
2023/01/09 02:46:05;;;;;;;;;;;18.70;40.80;;;;;;5062554;28;19928;-65
2023/01/09 02:48:33;;;;;;;;;;;18.60;40.70;;;;;;5064795;28;19969;-67
2023/01/09 02:51:03;;;;;;;;;;;18.70;40.80;;;;;;5062356;28;19973;-67
2023/01/09 02:53:48;;;;;;;;;;;18.70;40.80;;;;;;5064816;28;19921;-63
2023/01/09 02:56:19;;;;;;;;;;;18.60;40.70;;;;;;5070206;28;19930;-67
2023/01/09 02:58:52;;;;;;;;;;;18.60;40.70;;;;;;5080482;28;20381;-64
2023/01/09 03:01:22;;;;;;;;;;;18.60;40.70;;;;;;5077747;28;19924;-65
2023/01/09 03:03:52;;;;;;;;;;;18.60;40.70;;;;;;5082840;28;19921;-66
2023/01/09 03:06:20;;;;;;;;;;;18.60;40.70;;;;;;5059637;28;19986;-64
2023/01/09 03:08:47;;;;;;;;;;;18.70;40.90;;;;;;5062740;28;19974;-67
2023/01/09 03:11:14;;;;;;;;;;;18.60;40.80;;;;;;5064067;28;19969;-64
2023/01/09 03:13:42;;;;;;;;;;;18.60;40.80;;;;;;5083046;28;19977;-64
2023/01/09 03:16:09;;;;;;;;;;;18.60;40.80;;;;;;5064135;28;19943;-64
2023/01/09 03:18:36;;;;;;;;;;;18.60;40.80;;;;;;5062681;28;19973;-66
2023/01/09 03:21:04;;;;;;;;;;;18.60;40.80;;;;;;5063744;28;19969;-63
2023/01/09 03:23:45;;;;;;;;;;;18.60;40.80;;;;;;5060271;28;19921;-63
2023/01/09 03:26:11;;;;;;;;;;;18.60;40.90;;;;;;5063699;28;19985;-66
2023/01/09 03:28:38;;;;;;;;;;;18.60;40.90;;;;;;5061094;28;19924;-65
2023/01/09 03:31:05;;;;;;;;;;;18.60;40.90;;;;;;5063411;28;19924;-64
2023/01/09 03:33:32;;;;;;;;;;;18.60;40.90;;;;;;5082474;28;19932;-66
2023/01/09 03:35:59;;;;;;;;;;;18.60;40.90;;;;;;5064497;28;19928;-65
2023/01/09 03:38:27;;;;;;;;;;;18.60;40.90;;;;;;5062881;28;19920;-66
2023/01/09 03:40:54;;;;;;;;;;;18.60;40.90;;;;;;5062997;28;19939;-65
2023/01/09 03:43:20;;;;;;;;;;;18.60;40.90;;;;;;5078040;28;19921;-66
2023/01/09 03:45:47;;;;;;;;;;;18.60;40.90;;;;;;5063058;28;19946;-64
2023/01/09 03:48:14;;;;;;;;;;;18.60;41.00;;;;;;5064135;28;19928;-63
2023/01/09 03:50:44;;;;;;;;;;;18.60;41.00;;;;;;5061821;28;19978;-65
2023/01/09 03:53:11;;;;;;;;;;;18.60;41.00;;;;;;5059663;28;19920;-64
2023/01/09 03:55:40;;;;;;;;;;;18.60;41.00;;;;;;5062442;28;20275;-64
2023/01/09 03:58:06;;;;;;;;;;;18.60;41.00;;;;;;5061422;28;19943;-64
2023/01/09 04:00:33;;;;;;;;;;;18.60;41.20;;;;;;5061300;28;19932;-67
2023/01/09 04:03:00;;;;;;;;;;;18.60;41.00;;;;;;5063572;28;20243;-66
2023/01/09 04:05:27;;;;;;;;;;;18.60;41.00;;;;;;5061807;28;19985;-64
2023/01/09 04:07:53;;;;;;;;;;;18.60;41.00;;;;;;5063367;28;20018;-64
2023/01/09 04:10:20;;;;;;;;;;;18.70;41.10;;;;;;5065041;28;19920;-66
2023/01/09 04:12:48;;;;;;;;;;;18.60;41.00;;;;;;5061049;28;19973;-65
2023/01/09 04:15:15;;;;;;;;;;;18.60;41.00;;;;;;5061601;28;19920;-67
2023/01/09 04:17:42;;;;;;;;;;;18.60;41.10;;;;;;5061331;28;19989;-65
2023/01/09 04:20:09;;;;;;;;;;;18.60;41.10;;;;;;5063019;28;19920;-67
2023/01/09 04:22:36;;;;;;;;;;;18.60;41.10;;;;;;5079568;28;19920;-64
2023/01/09 04:25:03;;;;;;;;;;;18.60;41.10;;;;;;5081100;28;19924;-68
2023/01/09 04:27:30;;;;;;;;;;;18.60;41.10;;;;;;5061998;28;19943;-64
2023/01/09 04:29:58;;;;;;;;;;;18.60;41.10;;;;;;5077259;28;20312;-65
2023/01/09 04:32:26;;;;;;;;;;;18.60;41.20;;;;;;5061797;28;19970;-65
2023/01/09 04:34:53;;;;;;;;;;;18.60;41.20;;;;;;5063381;28;19931;-62
2023/01/09 04:37:19;;;;;;;;;;;18.60;41.20;;;;;;5063247;28;19973;-64
2023/01/09 04:39:46;;;;;;;;;;;18.60;41.20;;;;;;5061927;28;19927;-63
2023/01/09 04:42:13;;;;;;;;;;;18.60;41.20;;;;;;5060945;28;20016;-67
2023/01/09 04:44:40;;;;;;;;;;;18.60;41.20;;;;;;5078619;28;19924;-64
2023/01/09 04:47:08;;;;;;;;;;;18.60;41.20;;;;;;5073993;28;20300;-64
2023/01/09 04:49:35;;;;;;;;;;;18.60;41.20;;;;;;5062481;28;19940;-64
2023/01/09 04:52:02;;;;;;;;;;;18.60;41.20;;;;;;5063559;28;19921;-66
2023/01/09 04:54:29;;;;;;;;;;;18.60;41.30;;;;;;5085948;28;19920;-65
2023/01/09 04:56:55;;;;;;;;;;;18.60;41.30;;;;;;5062066;28;19952;-63
2023/01/09 04:59:22;;;;;;;;;;;18.60;41.30;;;;;;5085446;28;19977;-64
2023/01/09 05:01:50;;;;;;;;;;;18.60;41.30;;;;;;5067824;28;19920;-64
2023/01/09 05:04:18;;;;;;;;;;;18.60;41.30;;;;;;5066027;28;20011;-64
2023/01/09 05:06:45;;;;;;;;;;;18.60;41.30;;;;;;5066124;28;19973;-64
2023/01/09 05:09:12;;;;;;;;;;;18.60;41.40;;;;;;5066933;28;19928;-66
2023/01/09 05:11:39;;;;;;;;;;;18.60;41.40;;;;;;5065911;28;20320;-65
2023/01/09 05:14:05;;;;;;;;;;;18.60;41.40;;;;;;5068034;28;19994;-64
2023/01/09 05:16:32;;;;;;;;;;;18.60;41.50;;;;;;5083952;28;19927;-70
2023/01/09 05:18:59;;;;;;;;;;;18.60;41.50;;;;;;5067241;28;19920;-64
2023/01/09 05:21:27;;;;;;;;;;;18.60;41.50;;;;;;5081489;28;19920;-65
2023/01/09 05:23:54;;;;;;;;;;;18.60;41.50;;;;;;5063921;28;20247;-66
2023/01/09 05:26:22;;;;;;;;;;;18.60;41.50;;;;;;5064583;28;19947;-64
2023/01/09 05:28:49;;;;;;;;;;;18.60;41.50;;;;;;5062914;28;19942;-64
2023/01/09 05:31:16;;;;;;;;;;;18.60;41.60;;;;;;5066454;28;19939;-66
2023/01/09 05:33:42;;;;;;;;;;;18.60;41.60;;;;;;5083009;28;19966;-67
2023/01/09 05:36:09;;;;;;;;;;;18.60;41.60;;;;;;5083228;28;19920;-64
2023/01/09 05:38:37;;;;;;;;;;;18.60;41.60;;;;;;5065453;28;19932;-64
2023/01/09 05:41:04;;;;;;;;;;;18.60;42.20;;;;;;5065221;28;20032;-64
2023/01/09 05:43:32;;;;;;;;;;;18.60;41.60;;;;;;5064946;28;19945;-67
2023/01/09 05:45:59;;;;;;;;;;;18.60;41.70;;;;;;5064029;28;19920;-67
2023/01/09 05:48:25;;;;;;;;;;;18.60;41.70;;;;;;5066976;28;19924;-65
2023/01/09 05:50:52;;;;;;;;;;;18.60;41.60;;;;;;5064878;28;19924;-65
2023/01/09 05:53:19;;;;;;;;;;;18.60;41.70;;;;;;5066035;28;19981;-64
2023/01/09 05:55:47;;;;;;;;;;;18.60;41.70;;;;;;5063174;28;20348;-64
2023/01/09 05:58:14;;;;;;;;;;;18.60;41.70;;;;;;5082715;28;19921;-68
2023/01/09 06:00:40;;;;;;;;;;;18.60;41.70;;;;;;5077787;28;19932;-64
2023/01/09 06:03:07;;;;;;;;;;;18.60;41.70;;;;;;5056402;28;19977;-65
2023/01/09 06:05:34;;;;;;;;;;;18.60;41.70;;;;;;5060364;28;19928;-67
2023/01/09 06:08:01;;;;;;;;;;;18.60;41.80;;;;;;5065724;28;19920;-65
2023/01/09 06:10:27;;;;;;;;;;;18.60;41.80;;;;;;5062217;28;20278;-68
2023/01/09 06:12:56;;;;;;;;;;;18.60;41.80;;;;;;5080324;28;19919;-64
2023/01/09 06:15:22;;;;;;;;;;;18.60;41.80;;;;;;5084755;28;19924;-65
2023/01/09 06:17:49;;;;;;;;;;;18.60;41.80;;;;;;5064805;28;19927;-64
2023/01/09 06:20:16;;;;;;;;;;;18.60;41.80;;;;;;5063224;28;20462;-66
2023/01/09 06:22:44;;;;;;;;;;;18.60;41.80;;;;;;5062225;28;19920;-63
2023/01/09 06:25:13;;;;;;;;;;;18.60;41.80;;;;;;5064988;28;20425;-64
2023/01/09 06:27:40;;;;;;;;;;;18.60;41.80;;;;;;5081234;28;20420;-63
2023/01/09 06:30:10;;;;;;;;;;;18.60;41.80;;;;;;5063231;28;19963;-65
2023/01/09 06:32:36;;;;;;;;;;;18.60;41.80;;;;;;5065764;28;19996;-64
2023/01/09 06:35:04;;;;;;;;;;;18.60;42.40;;;;;;5082919;28;19920;-66
2023/01/09 06:37:33;;;;;;;;;;;18.60;41.90;;;;;;5082061;28;19924;-67
2023/01/09 06:39:59;;;;;;;;;;;18.60;41.90;;;;;;5065186;28;19991;-64
2023/01/09 06:42:26;;;;;;;;;;;18.60;41.80;;;;;;5080840;28;19931;-64
2023/01/09 06:44:53;;;;;;;;;;;18.60;41.90;;;;;;5063959;28;19925;-67
2023/01/09 06:47:21;;;;;;;;;;;18.60;41.90;;;;;;5061744;28;20362;-64
2023/01/09 06:49:48;;;;;;;;;;;18.60;41.90;;;;;;5062805;28;20029;-64
2023/01/09 06:52:15;;;;;;;;;;;18.60;41.90;;;;;;5063258;28;19986;-67
2023/01/09 06:54:42;;;;;;;;;;;18.60;41.90;;;;;;5064229;28;19920;-67
2023/01/09 06:57:09;;;;;;;;;;;18.60;41.90;;;;;;5063187;28;19920;-64
2023/01/09 06:59:35;;;;;;;;;;;18.60;41.90;;;;;;5062503;28;20019;-65
2023/01/09 07:02:02;;;;;;;;;;;18.50;41.80;;;;;;5060966;28;20293;-65
2023/01/09 07:04:30;;;;;;;;;;;18.60;41.90;;;;;;5063553;28;20360;-65
2023/01/09 07:06:57;;;;;;;;;;;18.60;41.90;;;;;;5062057;28;20389;-64
2023/01/09 07:09:24;;;;;;;;;;;18.60;41.90;;;;;;5062330;28;19920;-64
2023/01/09 07:11:50;;;;;;;;;;;18.50;41.80;;;;;;5063470;28;19924;-65
2023/01/09 07:14:17;;;;;;;;;;;18.60;41.90;;;;;;5047739;28;19943;-64
2023/01/09 07:16:44;;;;;;;;;;;18.60;41.90;;;;;;5068181;28;19928;-67
2023/01/09 07:19:10;;;;;;;;;;;18.60;41.90;;;;;;5065567;28;19940;-65
2023/01/09 07:21:39;;;;;;;;;;;18.50;41.80;;;;;;5080223;28;19940;-62
2023/01/09 07:24:06;;;;;;;;;;;18.50;41.80;;;;;;5065865;28;19927;-67
2023/01/09 07:26:33;;;;;;;;;;;18.60;41.90;;;;;;5067759;28;19924;-64
2023/01/09 07:28:59;;;;;;;;;;;18.50;41.80;;;;;;5056564;28;19932;-63
2023/01/09 07:31:26;;;;;;;;;;;18.50;41.80;;;;;;5057721;28;20487;-66
2023/01/09 07:33:53;;;;;;;;;;;18.50;41.80;;;;;;5082061;28;19925;-64
2023/01/09 07:36:19;;;;;;;;;;;18.50;41.80;;;;;;5081182;28;19997;-63
2023/01/09 07:38:48;;;;;;;;;;;18.50;41.80;;;;;;5081190;28;19920;-67
2023/01/09 07:41:14;;;;;;;;;;;18.50;41.80;;;;;;5065006;28;19927;-64
2023/01/09 07:43:41;;;;;;;;;;;18.50;41.80;;;;;;5058414;28;19923;-64
2023/01/09 07:46:08;;;;;;;;;;;18.50;41.80;;;;;;5079596;28;19954;-64
2023/01/09 07:48:35;;;;;;;;;;;18.50;41.80;;;;;;5055135;28;19924;-63
2023/01/09 07:51:01;;;;;;;;;;;18.50;41.80;;;;;;5073054;28;19927;-64
2023/01/09 07:53:28;;;;;;;;;;;18.50;41.80;;;;;;5055372;28;19920;-65
2023/01/09 07:55:56;;;;;;;;;;;18.50;41.80;;;;;;5071848;28;19936;-65
2023/01/09 07:58:23;;;;;;;;;;;18.50;41.80;;;;;;5065022;28;19921;-65
2023/01/09 08:00:50;;;;;;;;;;;18.50;41.80;;;;;;5036193;28;19921;-66
2023/01/09 08:03:17;;;;;;;;;;;18.60;41.90;;;;;;5071244;28;19947;-66
2023/01/09 08:05:43;;;;;;;;;;;18.60;41.90;;;;;;5056351;28;19920;-66
2023/01/09 08:08:10;;;;;;;;;;;18.60;42.60;;;;;;5056546;28;19976;-68
2023/01/09 08:10:37;;;;;;;;;;;18.60;42.10;;;;;;5074206;28;19924;-67
2023/01/09 08:13:05;;;;;;;;;;;18.60;42.20;;;;;;5048849;28;19974;-66
2023/01/09 08:15:32;;;;;;;;;;;18.60;42.30;;;;;;5056548;28;19927;-70
2023/01/09 08:17:59;;;;;;;;;;;18.70;42.50;;;;;;5050823;28;19943;-66
2023/01/09 08:20:26;;;;;;;;;;;18.70;42.50;;;;;;5063476;28;19928;-66
2023/01/09 08:22:53;;;;;;;;;;;18.70;42.50;;;;;;5072995;28;19921;-66
2023/01/09 08:25:20;;;;;;;;;;;18.70;42.50;;;;;;5057946;28;19990;-67
2023/01/09 08:27:47;;;;;;;;;;;18.80;42.70;;;;;;5058295;28;19930;-66
2023/01/09 08:30:16;;;;;;;;;;;18.80;42.70;;;;;;5060187;28;19921;-66
2023/01/09 08:32:42;;;;;;;;;;;18.80;42.80;;;;;;5060992;28;19920;-67
2023/01/09 08:35:09;;;;;;;;;;;18.80;42.90;;;;;;5079578;28;19927;-66
2023/01/09 08:37:36;;;;;;;;;;;18.90;43.00;;;;;;5047250;28;19967;-65
2023/01/09 08:40:03;;;;;;;;;;;18.80;42.90;;;;;;5056151;28;20366;-70
2023/01/09 08:48:02;;;;;;;;;;;18.90;43.10;;;;;;5039640;28;19921;-69
2023/01/09 08:50:29;;;;;;;;;;;19.00;43.20;;;;;;5054835;28;19924;-69
2023/01/09 08:52:55;;;;;;;;;;;19.00;43.20;;;;;;5059099;28;20389;-67
2023/01/09 08:55:22;;;;;;;;;;;19.00;43.20;;;;;;5057633;28;20361;-70
2023/01/09 08:57:49;;;;;;;;;;;19.00;43.20;;;;;;5060143;28;20400;-72
2023/01/09 09:00:18;;;;;;;;;;;19.00;43.20;;;;;;5064768;28;19974;-71
2023/01/09 09:02:45;;;;;;;;;;;19.00;43.20;;;;;;5076769;28;20266;-70
2023/01/09 09:05:12;;;;;;;;;;;19.00;43.20;;;;;;5062222;28;19921;-69
2023/01/09 09:07:38;;;;;;;;;;;19.10;43.30;;;;;;5053848;28;19947;-70
2023/01/09 09:10:05;;;;;;;;;;;19.10;43.30;;;;;;5059721;28;19989;-67
2023/01/09 09:12:32;;;;;;;;;;;19.10;43.30;;;;;;5058800;28;19974;-67
2023/01/09 09:15:15;;;;;;;;;;;19.10;43.30;;;;;;5074536;28;19963;-67
2023/01/09 09:17:43;;;;;;;;;;;19.10;43.30;;;;;;5059198;28;19921;-70
2023/01/09 09:20:10;;;;;;;;;;;19.20;43.50;;;;;;5062966;28;19943;-71
2023/01/09 09:22:37;;;;;;;;;;;19.20;43.50;;;;;;5080033;28;19920;-72
2023/01/09 09:25:04;;;;;;;;;;;19.10;43.50;;;;;;5080013;28;19974;-71
2023/01/09 09:27:31;;;;;;;;;;;19.20;43.50;;;;;;5063373;28;20412;-69
2023/01/09 09:29:57;;;;;;;;;;;19.20;43.50;;;;;;5055756;28;19972;-71
2023/01/09 09:32:24;;;;;;;;;;;19.20;43.50;;;;;;5074858;28;19920;-69
2023/01/09 09:34:52;;;;;;;;;;;19.20;43.50;;;;;;5076622;28;19925;-71
2023/01/09 09:37:19;;;;;;;;;;;19.20;43.50;;;;;;5075881;28;19925;-70
2023/01/09 09:39:46;;;;;;;;;;;19.20;43.60;;;;;;5076489;28;20358;-67
2023/01/09 09:45:16;;;;;;;;;;;19.30;43.60;;;;;;5058596;28;20350;-70
2023/01/09 09:47:45;;;;;;;;;;;19.30;43.60;;;;;;5058028;28;19920;-68
2023/01/09 09:50:18;;;;;;;;;;;19.30;43.60;;;;;;5076576;28;19975;-69
2023/01/09 09:52:46;;;;;;;;;;;19.30;43.60;;;;;;5058941;28;19977;-71
2023/01/09 09:55:15;;;;;;;;;;;19.30;43.60;;;;;;5058214;28;19920;-70
2023/01/09 09:57:42;;;;;;;;;;;19.30;43.60;;;;;;5058989;28;19970;-67
2023/01/09 10:00:10;;;;;;;;;;;19.30;43.60;;;;;;5057912;28;19924;-70
2023/01/09 10:02:39;;;;;;;;;;;19.30;43.60;;;;;;5058258;28;19943;-70
2023/01/09 10:05:07;;;;;;;;;;;19.30;43.50;;;;;;5058338;28;19921;-73
2023/01/09 10:07:40;;;;;;;;;;;19.30;43.50;;;;;;5058728;28;19920;-72
2023/01/09 10:10:09;;;;;;;;;;;19.30;43.50;;;;;;5057758;28;19951;-74
2023/01/09 10:12:37;;;;;;;;;;;19.30;43.50;;;;;;5076256;28;19990;-71
2023/01/09 10:15:09;;;;;;;;;;;19.30;43.50;;;;;;5058068;28;19966;-69
2023/01/09 10:17:48;;;;;;;;;;;19.30;43.50;;;;;;5076182;28;19920;-71
2023/01/09 10:20:48;;;;;;;;;;;19.30;43.50;;;;;;5075844;28;19974;-70
2023/01/09 10:23:36;;;;;;;;;;;19.40;43.60;;;;;;5075233;28;19920;-69
2023/01/09 10:26:05;;;;;;;;;;;19.40;43.60;;;;;;5032103;28;19955;-67
2023/01/09 10:28:39;;;;;;;;;;;19.30;43.50;;;;;;5057391;28;19973;-67
2023/01/09 10:31:08;;;;;;;;;;;19.30;43.50;;;;;;5075528;28;19966;-68
2023/01/09 10:33:37;;;;;;;;;;;19.40;43.60;;;;;;5057530;28;19920;-68
2023/01/09 10:36:13;;;;;;;;;;;19.40;43.60;;;;;;5057613;28;19921;-68
2023/01/09 10:38:40;;;;;;;;;;;19.40;43.60;;;;;;5075388;28;19924;-70
2023/01/09 10:41:09;;;;;;;;;;;19.40;43.60;;;;;;5058023;28;19921;-68
2023/01/09 10:43:36;;;;;;;;;;;19.40;43.60;;;;;;5057392;28;19925;-67
2023/01/09 10:46:03;;;;;;;;;;;19.40;43.70;;;;;;5057861;28;19959;-69
2023/01/09 10:48:32;;;;;;;;;;;19.40;43.70;;;;;;5057688;28;19924;-68
2023/01/09 10:50:59;;;;;;;;;;;19.40;43.70;;;;;;5057274;28;20424;-69
2023/01/09 10:53:26;;;;;;;;;;;19.40;43.70;;;;;;5075008;28;20269;-70
2023/01/09 10:55:54;;;;;;;;;;;19.40;43.70;;;;;;5058239;28;19943;-70
2023/01/09 10:58:22;;;;;;;;;;;19.40;43.80;;;;;;5074972;28;20277;-70
2023/01/09 11:00:49;;;;;;;;;;;19.40;43.70;;;;;;5056931;28;19921;-69
2023/01/09 11:03:17;;;;;;;;;;;19.40;43.70;;;;;;5056819;28;19970;-69
2023/01/09 11:05:44;;;;;;;;;;;19.40;43.70;;;;;;5057418;28;19950;-69
2023/01/09 11:08:12;;;;;;;;;;;19.40;43.70;;;;;;5056903;28;19966;-68
2023/01/09 11:10:46;;;;;;;;;;;19.40;43.70;;;;;;5074788;28;19974;-67
2023/01/09 11:13:13;;;;;;;;;;;19.40;43.80;;;;;;5057101;28;19955;-69
2023/01/09 11:15:42;;;;;;;;;;;19.40;43.80;;;;;;5056911;28;19974;-68
2023/01/09 11:18:19;;;;;;;;;;;19.50;43.80;;;;;;5057291;28;20001;-69
2023/01/09 11:20:45;;;;;;;;;;;19.50;43.80;;;;;;5067849;28;19920;-68
2023/01/09 11:23:23;;;;;;;;;;;19.50;43.90;;;;;;5066683;28;20344;-70
2023/01/09 11:25:51;;;;;;;;;;;19.50;43.90;;;;;;5069388;28;20002;-69
2023/01/09 11:28:18;;;;;;;;;;;19.50;43.90;;;;;;5075056;28;20369;-69
2023/01/09 11:30:52;;;;;;;;;;;19.50;43.90;;;;;;5074415;28;19943;-69
2023/01/09 11:33:20;;;;;;;;;;;19.50;43.90;;;;;;5076512;28;19920;-67
2023/01/09 11:35:50;;;;;;;;;;;19.50;43.90;;;;;;5076211;28;19920;-70
2023/01/09 11:38:17;;;;;;;;;;;19.50;44.00;;;;;;5077215;28;19924;-69
2023/01/09 11:40:45;;;;;;;;;;;19.50;44.00;;;;;;5076498;28;19928;-71
2023/01/09 11:43:14;;;;;;;;;;;19.50;43.90;;;;;;5070110;28;19955;-68
2023/01/09 11:45:45;;;;;;;;;;;19.50;44.00;;;;;;5054938;28;19926;-69
2023/01/09 11:48:26;;;;;;;;;;;19.50;44.00;;;;;;5083307;28;19963;-66
2023/01/09 11:50:53;;;;;;;;;;;19.60;44.10;;;;;;5072133;28;19980;-67
2023/01/09 11:53:20;;;;;;;;;;;19.50;44.00;;;;;;5085241;28;20023;-67
2023/01/09 11:55:47;;;;;;;;;;;19.50;44.00;;;;;;5056064;28;19925;-67
2023/01/09 11:58:15;;;;;;;;;;;19.50;44.00;;;;;;5054159;28;19921;-67
2023/01/09 12:00:44;;;;;;;;;;;19.50;44.00;;;;;;5073740;28;19920;-71
2023/01/09 12:03:11;;;;;;;;;;;19.50;44.00;;;;;;5071971;28;19970;-70
2023/01/09 12:05:42;;;;;;;;;;;19.60;44.10;;;;;;5055180;28;19921;-67
2023/01/09 12:08:12;;;;;;;;;;;19.60;44.10;;;;;;5077615;28;19920;-69
2023/01/09 12:10:49;;;;;;;;;;;19.50;44.00;;;;;;5052294;28;19920;-69
2023/01/09 12:13:20;;;;;;;;;;;19.60;44.10;;;;;;5052832;28;19925;-68
2023/01/09 12:15:49;;;;;;;;;;;19.60;44.10;;;;;;5056292;28;19977;-69
2023/01/09 12:18:24;;;;;;;;;;;19.60;44.10;;;;;;5034176;28;19925;-69
2023/01/09 12:20:58;;;;;;;;;;;19.60;44.10;;;;;;5036472;28;19979;-68
2023/01/09 12:23:28;;;;;;;;;;;19.60;44.10;;;;;;5041478;28;19920;-69
2023/01/09 12:25:57;;;;;;;;;;;19.60;44.10;;;;;;5056497;28;19989;-69
2023/01/09 12:28:30;;;;;;;;;;;19.60;44.10;;;;;;5059344;28;19985;-68
2023/01/09 12:30:58;;;;;;;;;;;19.60;44.20;;;;;;5061541;28;19920;-68
2023/01/09 12:33:28;;;;;;;;;;;19.50;44.10;;;;;;5061012;28;19920;-68
2023/01/09 12:35:57;;;;;;;;;;;19.60;44.20;;;;;;5079354;28;19920;-68
2023/01/09 12:38:28;;;;;;;;;;;19.60;44.20;;;;;;5055275;28;19971;-70
2023/01/09 12:41:12;;;;;;;;;;;19.60;44.20;;;;;;5056702;28;19921;-73
2023/01/09 12:43:40;;;;;;;;;;;19.60;44.20;;;;;;5055191;28;19924;-76
2023/01/09 12:46:13;;;;;;;;;;;19.60;44.30;;;;;;5053537;28;20358;-71
2023/01/09 12:48:43;;;;;;;;;;;19.60;44.20;;;;;;5073810;28;19966;-72
2023/01/09 12:51:23;;;;;;;;;;;19.60;44.30;;;;;;5053671;28;19970;-71
2023/01/09 12:53:51;;;;;;;;;;;19.60;44.20;;;;;;5071457;28;19920;-70
2023/01/09 12:56:19;;;;;;;;;;;19.60;44.30;;;;;;5073074;28;19920;-70
2023/01/09 12:58:47;;;;;;;;;;;19.60;44.30;;;;;;5069643;28;19974;-69
2023/01/09 13:01:14;;;;;;;;;;;19.60;44.90;;;;;;5057009;28;19921;-72
2023/01/09 13:03:42;;;;;;;;;;;19.60;44.30;;;;;;5056198;28;20353;-69
2023/01/09 13:06:10;;;;;;;;;;;19.60;44.30;;;;;;5056109;28;19920;-65
2023/01/09 13:08:39;;;;;;;;;;;19.60;44.30;;;;;;5070945;28;19970;-64
2023/01/09 13:11:07;;;;;;;;;;;19.60;44.40;;;;;;5055701;28;20381;-63
2023/01/09 13:13:35;;;;;;;;;;;19.60;44.30;;;;;;5090668;28;19920;-68
2023/01/09 13:16:02;;;;;;;;;;;19.60;44.30;;;;;;5068885;28;19924;-65
2023/01/09 13:18:30;;;;;;;;;;;19.60;44.30;;;;;;5068803;28;19927;-65
2023/01/09 13:20:56;;;;;;;;;;;19.60;44.20;;;;;;5063426;28;19921;-66
2023/01/09 13:23:26;;;;;;;;;;;19.60;44.30;;;;;;5059183;28;19920;-66
2023/01/09 13:25:56;;;;;;;;;;;19.60;44.20;;;;;;5068462;28;19920;-65
2023/01/09 13:28:24;;;;;;;;;;;19.60;44.20;;;;;;5079301;28;19927;-65
2023/01/09 13:30:59;;;;;;;;;;;19.60;44.20;;;;;;5066560;28;19920;-66
2023/01/09 13:33:27;;;;;;;;;;;19.60;44.10;;;;;;5059017;28;19928;-66
2023/01/09 13:35:54;;;;;;;;;;;19.50;44.00;;;;;;5058028;28;19920;-64
2023/01/09 13:38:21;;;;;;;;;;;19.60;44.10;;;;;;5088224;28;19970;-66
2023/01/09 13:40:49;;;;;;;;;;;19.60;44.10;;;;;;5072928;28;19928;-66
2023/01/09 13:43:17;;;;;;;;;;;19.60;44.00;;;;;;5061548;28;19931;-64
2023/01/09 13:45:43;;;;;;;;;;;19.60;43.90;;;;;;5076092;28;20341;-63
2023/01/09 13:48:29;;;;;;;;;;;19.50;43.80;;;;;;5079353;28;19959;-64
2023/01/09 13:51:10;;;;;;;;;;;19.50;43.80;;;;;;5095274;28;19965;-63
2023/01/09 13:53:45;;;;;;;;;;;19.50;43.80;;;;;;5096061;28;19920;-64
2023/01/09 13:56:13;;;;;;;;;;;19.50;43.80;;;;;;5079782;28;20003;-64
2023/01/09 13:58:57;;;;;;;;;;;19.50;43.80;;;;;;5072371;28;19947;-65
2023/01/09 14:01:42;;;;;;;;;;;19.50;44.30;;;;;;5069145;28;19920;-64
2023/01/09 14:04:27;;;;;;;;;;;19.50;43.70;;;;;;5052719;28;20308;-65
2023/01/09 14:07:09;;;;;;;;;;;19.50;43.70;;;;;;5063484;28;19931;-65
2023/01/09 14:09:36;;;;;;;;;;;19.50;43.70;;;;;;5060254;28;19924;-66
2023/01/09 14:12:03;;;;;;;;;;;19.50;43.70;;;;;;5076304;28;20330;-64
2023/01/09 14:14:31;;;;;;;;;;;19.50;43.70;;;;;;5071687;28;20324;-64
2023/01/09 14:17:02;;;;;;;;;;;19.50;43.70;;;;;;5078348;28;19920;-64
2023/01/09 14:19:32;;;;;;;;;;;19.40;43.60;;;;;;5075912;28;19927;-64
2023/01/09 14:21:59;;;;;;;;;;;19.50;43.70;;;;;;5079077;28;19920;-63
2023/01/09 14:24:27;;;;;;;;;;;19.40;43.60;;;;;;5068793;28;19924;-63
2023/01/09 14:26:55;;;;;;;;;;;19.40;43.70;;;;;;5068235;28;19920;-65
2023/01/09 14:29:42;;;;;;;;;;;19.40;43.60;;;;;;5080873;28;19924;-66
2023/01/09 14:32:32;;;;;;;;;;;19.40;43.60;;;;;;5067779;28;19920;-65
2023/01/09 14:35:02;;;;;;;;;;;19.40;43.60;;;;;;5076495;28;19920;-64
2023/01/09 14:37:29;;;;;;;;;;;19.40;43.60;;;;;;5096233;28;19927;-64